Time;durP1;ratioP1;P1;durP2;ratioP2;P2;SDS_P1;SDS_P2;PMS_P1;PMS_P2;Temp;Humidity;BMP_temperature;BMP_pressure;BME280_temperature;BME280_humidity;BME280_pressure;Samples;Min_cycle;Max_cycle;Signal;HPM_P1;HPM_P2
2023/05/11 00:01:51;;;;;;;7.68;3.95;;;21.40;73.10;;;;;;4889478;28;89620;-92
2023/05/11 00:04:16;;;;;;;6.57;3.70;;;21.40;73.30;;;;;;4889793;28;90080;-92
2023/05/11 00:06:42;;;;;;;5.53;3.40;;;21.40;73.00;;;;;;4889608;28;87900;-91
2023/05/11 00:09:09;;;;;;;6.65;3.85;;;21.40;73.10;;;;;;4864429;28;87914;-92
2023/05/11 00:11:35;;;;;;;5.32;3.40;;;21.40;73.20;;;;;;4861269;29;89360;-92
2023/05/11 00:14:01;;;;;;;4.63;3.22;;;21.40;73.00;;;;;;4862270;29;90361;-92
2023/05/11 00:16:27;;;;;;;5.50;3.13;;;21.30;72.90;;;;;;4875483;28;87347;-92
2023/05/11 00:18:53;;;;;;;6.68;3.78;;;21.40;73.30;;;;;;4888769;28;88379;-91
2023/05/11 00:21:19;;;;;;;4.63;3.33;;;21.40;73.30;;;;;;4890547;28;95312;-92
2023/05/11 00:23:45;;;;;;;5.18;3.22;;;21.40;73.30;;;;;;4888661;28;90249;-92
2023/05/11 00:26:10;;;;;;;7.40;3.53;;;21.40;73.30;;;;;;4890379;28;87185;-92
2023/05/11 00:28:36;;;;;;;6.35;3.47;;;21.40;73.40;;;;;;4890255;28;88392;-91
2023/05/11 00:31:02;;;;;;;5.35;3.55;;;21.40;73.20;;;;;;4890662;28;88969;-92
2023/05/11 00:33:28;;;;;;;7.00;3.83;;;21.30;73.30;;;;;;4887967;28;90754;-92
2023/05/11 00:35:54;;;;;;;6.50;3.80;;;21.30;73.20;;;;;;4890042;28;87748;-92
2023/05/11 00:38:19;;;;;;;5.10;3.40;;;21.30;73.20;;;;;;4889583;28;87961;-92
2023/05/11 00:40:47;;;;;;;6.03;3.30;;;21.30;73.30;;;;;;4881965;28;90377;-90
2023/05/11 00:43:13;;;;;;;5.45;3.47;;;21.30;73.30;;;;;;4887610;28;90525;-93
2023/05/11 00:45:39;;;;;;;7.07;3.10;;;21.30;73.20;;;;;;4888758;28;88394;-93
2023/05/11 00:48:05;;;;;;;5.93;3.17;;;21.30;73.10;;;;;;4888705;28;89492;-92
2023/05/11 00:50:31;;;;;;;4.95;3.00;;;21.30;73.20;;;;;;4888807;28;87916;-90
2023/05/11 00:52:58;;;;;;;4.07;3.00;;;21.30;73.20;;;;;;4883216;28;89667;-91
2023/05/11 00:55:26;;;;;;;4.53;3.22;;;21.30;73.40;;;;;;4888502;28;87616;-89
2023/05/11 00:57:52;;;;;;;5.82;3.45;;;21.30;73.20;;;;;;4889812;28;88981;-93
2023/05/11 01:00:18;;;;;;;6.63;3.35;;;21.30;73.50;;;;;;4902971;28;91689;-92
2023/05/11 01:02:44;;;;;;;5.15;3.92;;;21.30;73.30;;;;;;4887366;28;90168;-90
2023/05/11 01:05:10;;;;;;;5.35;3.28;;;21.30;73.20;;;;;;4885796;28;87273;-92
2023/05/11 01:08:11;;;;;;;5.68;3.28;;;21.20;73.10;;;;;;4890394;28;88147;-92
2023/05/11 01:11:18;;;;;;;5.50;3.40;;;21.30;73.20;;;;;;4876551;28;90678;-92
2023/05/11 01:13:51;;;;;;;4.55;3.33;;;21.30;73.10;;;;;;4870255;28;89721;-92
2023/05/11 01:16:26;;;;;;;4.05;3.08;;;21.20;73.10;;;;;;4871888;28;87635;-93
2023/05/11 01:18:59;;;;;;;5.10;3.42;;;21.20;73.10;;;;;;4878104;28;88306;-90
2023/05/11 01:21:33;;;;;;;7.22;3.92;;;21.30;73.10;;;;;;4885042;28;94763;-92
2023/05/11 01:24:21;;;;;;;5.63;3.55;;;21.20;73.20;;;;;;4877507;28;88736;-92
2023/05/11 01:27:29;;;;;;;5.05;3.30;;;21.20;73.20;;;;;;4889263;28;87398;-91
2023/05/11 01:30:13;;;;;;;5.63;3.20;;;21.20;73.10;;;;;;4896190;28;88669;-90
2023/05/11 01:32:41;;;;;;;4.63;3.20;;;21.20;73.20;;;;;;4904033;28;90346;-93
2023/05/11 01:35:18;;;;;;;4.20;3.03;;;21.20;73.20;;;;;;4893618;28;88906;-93
2023/05/11 01:37:47;;;;;;;5.18;3.33;;;21.20;73.20;;;;;;4907129;28;88806;-92
2023/05/11 01:40:16;;;;;;;6.57;3.55;;;21.20;73.10;;;;;;4908185;28;88465;-93
2023/05/11 01:42:48;;;;;;;4.20;3.33;;;21.20;73.20;;;;;;4891588;28;90418;-90
2023/05/11 01:45:16;;;;;;;4.00;2.83;;;21.20;73.20;;;;;;4889198;28;90132;-92
2023/05/11 01:47:47;;;;;;;4.60;2.92;;;21.20;72.90;;;;;;4893289;28;87116;-91
2023/05/11 01:50:15;;;;;;;3.25;2.63;;;21.20;73.10;;;;;;4890095;28;88527;-90
2023/05/11 01:52:42;;;;;;;5.57;3.22;;;21.20;73.20;;;;;;4888301;28;90184;-91
2023/05/11 01:55:09;;;;;;;4.63;3.05;;;21.20;73.00;;;;;;4885292;28;89090;-90
2023/05/11 01:57:37;;;;;;;4.38;2.97;;;21.20;73.10;;;;;;4894022;28;87577;-92
2023/05/11 02:00:03;;;;;;;4.45;3.53;;;21.20;73.20;;;;;;4889372;28;88567;-91
2023/05/11 02:02:30;;;;;;;4.63;3.33;;;21.10;73.20;;;;;;4898674;28;90476;-91
2023/05/11 02:04:58;;;;;;;5.22;3.35;;;21.10;73.00;;;;;;4889700;28;91290;-92
2023/05/11 02:07:26;;;;;;;4.18;3.00;;;21.20;73.30;;;;;;4883783;28;88130;-93
2023/05/11 02:09:53;;;;;;;5.95;3.42;;;21.20;73.00;;;;;;4891188;28;87646;-91
2023/05/11 02:12:20;;;;;;;4.57;3.08;;;21.20;73.10;;;;;;4898803;28;93442;-90
2023/05/11 02:14:47;;;;;;;4.28;3.05;;;21.20;73.00;;;;;;4890202;28;88685;-93
2023/05/11 02:17:15;;;;;;;3.97;2.88;;;21.20;72.90;;;;;;4893113;28;87208;-91
2023/05/11 02:19:43;;;;;;;4.43;3.00;;;21.20;73.00;;;;;;4890763;28;88199;-92
2023/05/11 02:22:10;;;;;;;4.70;3.10;;;21.10;72.80;;;;;;4887076;28;90831;-91
2023/05/11 02:24:36;;;;;;;5.65;3.03;;;21.10;72.90;;;;;;4891462;28;90642;-92
2023/05/11 02:27:02;;;;;;;4.57;2.92;;;21.10;73.00;;;;;;4888052;28;88630;-91
2023/05/11 02:29:28;;;;;;;5.60;3.30;;;21.10;72.90;;;;;;4889178;28;88860;-92
2023/05/11 02:32:06;;;;;;;5.15;3.17;;;21.10;72.90;;;;;;4888843;28;89209;-92
2023/05/11 02:34:40;;;;;;;4.00;3.15;;;21.10;72.80;;;;;;4888271;28;89090;-91
2023/05/11 02:37:12;;;;;;;5.18;3.30;;;21.10;72.80;;;;;;4898325;28;87029;-91
2023/05/11 02:39:40;;;;;;;4.25;2.92;;;21.10;72.90;;;;;;4906892;28;89068;-92
2023/05/11 02:42:14;;;;;;;4.38;3.08;;;21.10;72.80;;;;;;4889842;28;90315;-92
2023/05/11 02:44:53;;;;;;;4.32;3.00;;;21.10;72.80;;;;;;4883601;28;90533;-92
2023/05/11 02:47:21;;;;;;;4.05;3.08;;;21.10;72.90;;;;;;4890138;28;86999;-92
2023/05/11 02:49:52;;;;;;;4.45;2.92;;;21.10;72.90;;;;;;4889508;28;88732;-92
2023/05/11 02:52:21;;;;;;;3.47;2.88;;;21.10;72.70;;;;;;4889170;28;89885;-91
2023/05/11 02:54:50;;;;;;;3.08;2.67;;;21.10;72.80;;;;;;4895692;28;91301;-92
2023/05/11 02:57:17;;;;;;;3.13;2.63;;;21.10;72.90;;;;;;4887604;28;87546;-92
2023/05/11 02:59:44;;;;;;;3.95;2.72;;;21.10;72.80;;;;;;4887444;28;89216;-91
2023/05/11 03:02:10;;;;;;;3.90;2.80;;;21.10;72.60;;;;;;4887473;28;89318;-90
2023/05/11 03:04:36;;;;;;;5.18;2.90;;;21.10;72.80;;;;;;4888752;28;90492;-91
2023/05/11 03:07:01;;;;;;;4.53;2.88;;;21.10;72.80;;;;;;4886309;28;87201;-90
2023/05/11 03:09:27;;;;;;;5.47;3.28;;;21.00;72.80;;;;;;4889282;28;87981;-92
2023/05/11 03:11:54;;;;;;;3.60;2.85;;;21.00;72.80;;;;;;4888912;28;89110;-92
2023/05/11 03:14:20;;;;;;;3.40;3.03;;;21.00;72.70;;;;;;4888994;28;90314;-91
2023/05/11 03:16:47;;;;;;;4.35;2.72;;;21.00;72.80;;;;;;4888677;28;88599;-92
2023/05/11 03:19:14;;;;;;;4.13;2.55;;;21.00;72.80;;;;;;4897623;28;90218;-92
2023/05/11 03:21:40;;;;;;;3.92;2.95;;;21.00;72.90;;;;;;4887926;28;90400;-91
2023/05/11 03:24:07;;;;;;;4.50;3.25;;;21.00;72.70;;;;;;4889400;28;89016;-92
2023/05/11 03:26:35;;;;;;;4.10;2.83;;;21.00;72.60;;;;;;4888719;28;88047;-92
2023/05/11 03:29:02;;;;;;;3.47;2.88;;;21.00;72.60;;;;;;4888513;28;89478;-92
2023/05/11 03:31:28;;;;;;;4.10;2.55;;;21.00;72.60;;;;;;4887776;28;90312;-89
2023/05/11 03:33:54;;;;;;;3.85;2.83;;;21.00;72.50;;;;;;4889398;28;90851;-92
2023/05/11 03:36:21;;;;;;;4.28;2.50;;;21.00;72.40;;;;;;4887930;28;87292;-92
2023/05/11 03:38:51;;;;;;;5.63;2.83;;;21.00;72.50;;;;;;4889047;28;87529;-91
2023/05/11 03:41:19;;;;;;;3.70;2.72;;;21.00;72.40;;;;;;4889360;28;91381;-90
2023/05/11 03:43:48;;;;;;;3.85;2.53;;;21.00;72.50;;;;;;4889797;28;90700;-92
2023/05/11 03:46:17;;;;;;;4.47;2.80;;;21.00;72.30;;;;;;4889545;28;87169;-92
2023/05/11 03:48:44;;;;;;;3.38;2.60;;;21.00;72.40;;;;;;4889181;28;89209;-91
2023/05/11 03:51:10;;;;;;;3.55;2.70;;;21.00;72.60;;;;;;4889453;28;91236;-90
2023/05/11 03:53:37;;;;;;;3.83;2.88;;;21.00;72.30;;;;;;4889790;28;89878;-91
2023/05/11 03:56:03;;;;;;;4.90;3.20;;;21.00;72.40;;;;;;4890949;28;87721;-91
2023/05/11 03:58:30;;;;;;;3.95;2.88;;;21.00;72.50;;;;;;4880044;28;89670;-92
2023/05/11 04:00:56;;;;;;;4.05;2.63;;;21.00;72.40;;;;;;4889360;28;90231;-90
2023/05/11 04:03:21;;;;;;;4.18;2.78;;;21.00;73.30;;;;;;4890424;28;88515;-92
2023/05/11 04:05:47;;;;;;;4.53;3.00;;;21.00;72.30;;;;;;4889064;28;88660;-91
2023/05/11 04:08:13;;;;;;;3.25;2.78;;;21.00;72.40;;;;;;4891690;28;89424;-92
2023/05/11 04:10:39;;;;;;;4.82;2.83;;;21.00;72.50;;;;;;4878676;28;90182;-91
2023/05/11 04:13:05;;;;;;;3.10;2.33;;;21.00;72.40;;;;;;4889375;28;89167;-90
2023/05/11 04:15:30;;;;;;;3.58;2.70;;;20.90;72.20;;;;;;4889524;28;87003;-92
2023/05/11 04:17:56;;;;;;;4.07;3.05;;;21.00;72.50;;;;;;4882568;28;87295;-93
2023/05/11 04:20:25;;;;;;;4.00;2.72;;;20.90;72.30;;;;;;4889206;28;89103;-93
2023/05/11 04:22:53;;;;;;;4.45;2.67;;;21.00;72.10;;;;;;4877321;28;89197;-92
2023/05/11 04:25:19;;;;;;;3.45;2.63;;;20.90;72.20;;;;;;4885006;28;87052;-92
2023/05/11 04:27:45;;;;;;;3.88;2.55;;;21.00;72.30;;;;;;4872852;28;88230;-91
2023/05/11 04:30:11;;;;;;;3.90;2.60;;;20.90;72.20;;;;;;4889444;28;90043;-91
2023/05/11 04:32:36;;;;;;;4.25;2.72;;;20.90;72.20;;;;;;4890218;28;90705;-90
2023/05/11 04:35:02;;;;;;;3.97;2.80;;;20.90;72.30;;;;;;4888925;28;87373;-91
2023/05/11 04:37:28;;;;;;;3.70;2.47;;;20.90;72.30;;;;;;4897974;28;88815;-92
2023/05/11 04:39:55;;;;;;;3.33;2.72;;;20.90;72.40;;;;;;4888648;28;90915;-91
2023/05/11 04:42:21;;;;;;;4.72;2.72;;;21.00;72.30;;;;;;4887210;28;88891;-92
2023/05/11 04:44:46;;;;;;;2.83;2.50;;;20.90;72.20;;;;;;4887745;28;87503;-91
2023/05/11 04:47:13;;;;;;;4.90;2.80;;;20.90;72.10;;;;;;4889894;28;88196;-92
2023/05/11 04:49:39;;;;;;;3.78;2.53;;;21.00;72.30;;;;;;4887590;28;90298;-91
2023/05/11 04:52:04;;;;;;;4.10;2.65;;;21.00;72.30;;;;;;4887059;28;89021;-91
2023/05/11 04:54:30;;;;;;;3.83;2.83;;;21.00;72.10;;;;;;4888308;28;88915;-90
2023/05/11 04:56:56;;;;;;;4.13;2.60;;;21.00;72.00;;;;;;4873420;28;88007;-92
2023/05/11 04:59:22;;;;;;;3.90;2.70;;;21.00;72.10;;;;;;4887724;28;89419;-92
2023/05/11 05:01:48;;;;;;;3.22;2.35;;;21.00;71.90;;;;;;4891698;28;88575;-92
2023/05/11 05:04:13;;;;;;;3.47;2.40;;;21.00;72.00;;;;;;4890721;28;87054;-93
2023/05/11 05:06:42;;;;;;;3.50;2.42;;;21.10;72.00;;;;;;4891587;28;88124;-91
2023/05/11 05:09:09;;;;;;;4.40;2.92;;;21.10;71.80;;;;;;4893087;28;89447;-90
2023/05/11 05:11:35;;;;;;;3.63;2.65;;;21.10;71.60;;;;;;4894982;28;87779;-92
2023/05/11 05:14:01;;;;;;;3.35;2.72;;;21.20;71.50;;;;;;4891534;28;87766;-92
2023/05/11 05:16:26;;;;;;;3.40;2.58;;;21.20;71.50;;;;;;4872062;28;89206;-92
2023/05/11 05:18:54;;;;;;;3.35;2.60;;;21.20;71.60;;;;;;4866322;29;91138;-91
2023/05/11 05:21:20;;;;;;;5.85;2.78;;;21.20;71.40;;;;;;4893352;28;93976;-93
2023/05/11 05:23:45;;;;;;;4.32;2.90;;;21.20;71.30;;;;;;4873410;28;87093;-89
2023/05/11 05:26:11;;;;;;;3.92;2.67;;;21.20;71.40;;;;;;4877206;28;89033;-92
2023/05/11 05:28:37;;;;;;;2.78;2.30;;;21.10;71.40;;;;;;4864893;29;89254;-94
2023/05/11 05:31:03;;;;;;;3.85;2.75;;;21.20;71.60;;;;;;4865664;28;88219;-92
2023/05/11 05:33:29;;;;;;;3.22;2.60;;;21.20;71.60;;;;;;4865012;29;87203;-92
2023/05/11 05:35:54;;;;;;;2.90;2.25;;;21.20;71.60;;;;;;4864900;29;88152;-92
2023/05/11 05:38:20;;;;;;;3.90;2.70;;;21.20;71.60;;;;;;4864725;28;90396;-91
2023/05/11 05:40:46;;;;;;;3.42;2.47;;;21.20;71.60;;;;;;4863883;29;89894;-92
2023/05/11 05:43:12;;;;;;;4.10;2.67;;;21.10;71.60;;;;;;4862535;28;87824;-91
2023/05/11 05:45:37;;;;;;;2.45;2.17;;;21.20;71.40;;;;;;4860222;29;89355;-88
2023/05/11 05:48:04;;;;;;;3.95;3.00;;;21.10;71.70;;;;;;4857611;29;90747;-89
2023/05/11 05:50:31;;;;;;;2.90;2.60;;;21.10;71.70;;;;;;4856723;29;90771;-89
2023/05/11 05:52:57;;;;;;;3.22;2.75;;;21.10;71.80;;;;;;4856077;28;87379;-90
2023/05/11 05:55:23;;;;;;;3.38;2.72;;;21.10;71.90;;;;;;4856347;29;88501;-89
2023/05/11 05:57:49;;;;;;;5.03;2.85;;;21.10;72.30;;;;;;4858030;29;90925;-86
2023/05/11 06:00:15;;;;;;;6.38;3.20;;;21.30;71.80;;;;;;4852034;28;86856;-85
2023/05/11 06:02:41;;;;;;;11.77;3.97;;;21.20;70.10;;;;;;4849986;29;87351;-87
2023/05/11 06:05:07;;;;;;;7.55;3.88;;;21.20;70.40;;;;;;4852511;28;87621;-88
2023/05/11 06:07:32;;;;;;;5.85;3.10;;;21.10;70.90;;;;;;4853594;29;92409;-90
2023/05/11 06:09:58;;;;;;;3.58;2.85;;;21.10;72.50;;;;;;4856207;28;90818;-88
2023/05/11 06:12:24;;;;;;;5.57;3.17;;;21.10;72.80;;;;;;4882737;28;87983;-88
2023/05/11 06:14:50;;;;;;;4.90;3.42;;;21.20;72.80;;;;;;4885670;28;88340;-91
2023/05/11 06:17:16;;;;;;;9.35;3.78;;;21.20;72.60;;;;;;4888863;28;90919;-91
2023/05/11 06:19:41;;;;;;;6.07;3.63;;;21.30;72.20;;;;;;4887780;28;90423;-92
2023/05/11 06:22:07;;;;;;;7.68;3.67;;;21.20;72.40;;;;;;4886151;28;87261;-91
2023/05/11 06:24:33;;;;;;;5.30;3.72;;;21.10;72.60;;;;;;4888718;28;89320;-90
2023/05/11 06:26:58;;;;;;;7.30;3.45;;;21.10;72.70;;;;;;4889028;28;88962;-92
2023/05/11 06:29:24;;;;;;;5.93;3.67;;;21.20;72.70;;;;;;4885789;28;88882;-92
2023/05/11 06:31:51;;;;;;;4.45;3.45;;;21.30;72.10;;;;;;4890931;28;89005;-91
2023/05/11 06:34:20;;;;;;;6.20;3.30;;;21.30;72.10;;;;;;4886955;28;89282;-92
2023/05/11 06:36:46;;;;;;;4.57;3.50;;;21.20;72.30;;;;;;4871821;28;89022;-91
2023/05/11 06:39:13;;;;;;;3.58;2.88;;;21.20;72.50;;;;;;4889337;28;88640;-90
2023/05/11 06:41:39;;;;;;;6.40;3.58;;;21.20;72.70;;;;;;4888255;28;87762;-92
2023/05/11 06:44:05;;;;;;;6.40;3.40;;;21.20;72.60;;;;;;4887783;28;88258;-92
2023/05/11 06:46:31;;;;;;;5.88;3.67;;;21.10;72.70;;;;;;4887309;28;90008;-91
2023/05/11 06:48:57;;;;;;;5.68;3.95;;;21.10;72.70;;;;;;4889201;28;88683;-90
2023/05/11 06:51:23;;;;;;;5.38;3.35;;;21.10;72.80;;;;;;4904310;28;87410;-90
2023/05/11 06:53:49;;;;;;;3.90;3.10;;;21.10;72.80;;;;;;4887367;28;89935;-92
2023/05/11 06:56:15;;;;;;;4.88;3.30;;;21.10;72.70;;;;;;4888645;28;89843;-92
2023/05/11 06:58:41;;;;;;;7.43;3.35;;;21.00;72.90;;;;;;4886316;28;91076;-92
2023/05/11 07:01:07;;;;;;;4.82;3.38;;;21.00;72.80;;;;;;4888035;28;87444;-92
2023/05/11 07:03:33;;;;;;;6.95;3.65;;;21.00;73.10;;;;;;4887965;28;89636;-93
2023/05/11 07:05:59;;;;;;;5.38;3.13;;;21.00;73.10;;;;;;4888810;28;88785;-91
2023/05/11 07:08:25;;;;;;;4.20;3.40;;;21.00;73.10;;;;;;4883976;28;89956;-92
2023/05/11 07:10:51;;;;;;;5.38;3.38;;;21.00;73.20;;;;;;4888123;28;87769;-91
2023/05/11 07:13:17;;;;;;;4.68;3.55;;;21.00;73.20;;;;;;4889093;28;88288;-92
2023/05/11 07:15:43;;;;;;;4.70;3.47;;;21.00;73.20;;;;;;4889541;28;89390;-91
2023/05/11 07:18:09;;;;;;;6.10;3.90;;;20.90;73.00;;;;;;4895414;28;89041;-91
2023/05/11 07:20:39;;;;;;;6.38;3.55;;;21.00;73.10;;;;;;4873507;28;88136;-92
2023/05/11 07:23:05;;;;;;;6.10;3.67;;;21.00;72.90;;;;;;4864871;29;89667;-92
2023/05/11 07:25:31;;;;;;;8.25;4.35;;;21.00;73.10;;;;;;4865462;28;89517;-91
2023/05/11 07:27:57;;;;;;;4.07;2.80;;;21.00;72.20;;;;;;4877822;28;90457;-89
2023/05/11 07:30:24;;;;;;;5.47;4.00;;;21.00;72.80;;;;;;4883166;28;87825;-89
2023/05/11 07:32:49;;;;;;;5.63;3.83;;;21.00;72.70;;;;;;4882971;28;89631;-89
2023/05/11 07:35:15;;;;;;;6.28;3.58;;;21.00;72.50;;;;;;4887044;28;90656;-89
2023/05/11 07:37:41;;;;;;;6.28;4.10;;;21.10;72.50;;;;;;4882074;28;89597;-91
2023/05/11 07:40:07;;;;;;;10.90;4.88;;;21.10;72.20;;;;;;4882847;28;87131;-92
2023/05/11 07:42:33;;;;;;;26.70;8.93;;;21.10;72.20;;;;;;4881638;28;90335;-89
2023/05/11 07:44:59;;;;;;;31.00;11.07;;;21.10;72.30;;;;;;4871009;28;90385;-90
2023/05/11 07:47:24;;;;;;;51.00;14.00;;;21.10;72.40;;;;;;4876237;28;92728;-91
2023/05/11 07:49:50;;;;;;;37.45;12.77;;;21.00;72.70;;;;;;4886824;28;87008;-93
2023/05/11 07:52:16;;;;;;;49.45;13.93;;;21.10;72.40;;;;;;4885780;28;89600;-93
2023/05/11 07:54:42;;;;;;;40.25;12.98;;;21.10;72.70;;;;;;4887082;28;89767;-89
2023/05/11 07:57:10;;;;;;;44.15;13.70;;;21.20;72.80;;;;;;4898447;28;88938;-90
2023/05/11 07:59:36;;;;;;;43.47;13.02;;;21.20;72.90;;;;;;4881957;28;87392;-85
2023/05/11 08:02:03;;;;;;;52.38;15.05;;;21.10;73.40;;;;;;4874738;28;87767;-86
2023/05/11 08:04:29;;;;;;;45.35;14.30;;;21.10;73.80;;;;;;4891657;28;89239;-86
2023/05/11 08:06:55;;;;;;;45.65;13.45;;;21.10;74.20;;;;;;4875491;28;91095;-88
2023/05/11 08:09:22;;;;;;;37.72;14.02;;;21.10;74.50;;;;;;4875132;28;88399;-91
2023/05/11 08:11:48;;;;;;;46.55;15.63;;;21.10;75.10;;;;;;4862094;28;88975;-89
2023/05/11 08:14:14;;;;;;;39.15;14.27;;;21.20;74.80;;;;;;4890131;28;90809;-91
2023/05/11 08:16:40;;;;;;;41.83;15.00;;;21.20;71.20;;;;;;4892542;28;90370;-93
2023/05/11 08:19:06;;;;;;;40.72;15.13;;;21.10;72.10;;;;;;4890020;28;87661;-94
2023/05/11 08:21:32;;;;;;;51.20;16.92;;;21.10;73.70;;;;;;4889824;28;88272;-90
2023/05/11 08:24:15;;;;;;;38.05;15.68;;;21.10;74.70;;;;;;4891291;28;88477;-91
2023/05/11 08:26:41;;;;;;;36.80;14.88;;;21.10;75.50;;;;;;4891808;28;90090;-92
2023/05/11 08:29:07;;;;;;;44.40;16.52;;;21.20;75.20;;;;;;4893691;28;87263;-92
2023/05/11 08:31:32;;;;;;;39.58;15.85;;;21.10;75.20;;;;;;4887852;28;89795;-92
2023/05/11 08:33:58;;;;;;;40.70;15.52;;;21.10;75.20;;;;;;4887052;28;91585;-89
2023/05/11 08:36:24;;;;;;;39.95;15.52;;;21.20;75.50;;;;;;4887671;28;90603;-91
2023/05/11 08:38:50;;;;;;;43.25;16.20;;;21.20;75.00;;;;;;4884283;28;87402;-86
2023/05/11 08:41:15;;;;;;;41.25;14.77;;;21.20;75.40;;;;;;4879839;28;87601;-89
2023/05/11 08:43:43;;;;;;;35.60;15.57;;;21.20;75.60;;;;;;4882390;28;90591;-89
2023/05/11 08:46:11;;;;;;;43.53;16.45;;;21.10;75.90;;;;;;4878870;28;90646;-89
2023/05/11 08:48:37;;;;;;;38.67;15.20;;;21.10;76.20;;;;;;4879211;28;88038;-87
2023/05/11 08:51:03;;;;;;;34.47;13.93;;;21.10;76.40;;;;;;4878882;28;89198;-92
2023/05/11 08:53:29;;;;;;;35.13;15.40;;;21.10;76.20;;;;;;4882981;28;87525;-89
2023/05/11 08:55:58;;;;;;;37.28;16.33;;;21.10;77.30;;;;;;4872788;28;90290;-92
2023/05/11 08:58:25;;;;;;;37.50;15.23;;;21.10;76.60;;;;;;4893249;28;88146;-92
2023/05/11 09:00:51;;;;;;;38.75;16.63;;;21.20;76.80;;;;;;4892889;28;88948;-90
2023/05/11 09:03:18;;;;;;;33.78;14.32;;;21.20;76.60;;;;;;4887583;28;88984;-91
2023/05/11 09:05:48;;;;;;;34.38;14.35;;;21.20;76.60;;;;;;4885374;28;88895;-90
2023/05/11 09:08:16;;;;;;;33.78;14.98;;;21.10;76.50;;;;;;4886511;28;87156;-93
2023/05/11 09:10:43;;;;;;;37.23;14.17;;;21.20;76.50;;;;;;4888140;28;88307;-90
2023/05/11 09:13:09;;;;;;;36.38;14.82;;;21.10;76.40;;;;;;4889032;28;90030;-91
2023/05/11 09:15:35;;;;;;;36.40;14.95;;;21.10;76.60;;;;;;4884696;28;89113;-93
2023/05/11 09:18:01;;;;;;;34.38;15.77;;;21.10;76.50;;;;;;4889483;28;87431;-91
2023/05/11 09:20:30;;;;;;;29.85;14.65;;;21.10;76.80;;;;;;4889409;28;89254;-91
2023/05/11 09:22:57;;;;;;;26.10;11.23;;;21.10;76.80;;;;;;4890981;28;89152;-93
2023/05/11 09:25:24;;;;;;;24.48;10.10;;;21.10;73.60;;;;;;4891619;28;88850;-91
2023/05/11 09:27:50;;;;;;;16.60;7.68;;;21.00;69.80;;;;;;4890046;28;87079;-93
2023/05/11 09:30:20;;;;;;;22.05;7.47;;;21.00;66.40;;;;;;4889703;28;88157;-90
2023/05/11 09:32:58;;;;;;;27.02;8.52;;;21.00;66.40;;;;;;4887641;28;89719;-92
2023/05/11 09:35:30;;;;;;;19.33;8.65;;;20.90;67.10;;;;;;4889876;28;89258;-92
2023/05/11 09:38:06;;;;;;;19.52;9.50;;;21.00;68.50;;;;;;4887923;28;87447;-88
2023/05/11 09:40:35;;;;;;;20.92;8.75;;;21.00;69.50;;;;;;4891480;28;88252;-93
2023/05/11 09:43:02;;;;;;;27.75;10.23;;;21.00;71.00;;;;;;4872001;28;89754;-91
2023/05/11 09:45:44;;;;;;;25.63;11.75;;;21.00;72.00;;;;;;4890359;28;88789;-89
2023/05/11 09:48:25;;;;;;;31.88;12.00;;;21.10;72.10;;;;;;4882675;28;87954;-90
2023/05/11 09:50:58;;;;;;;29.98;11.60;;;21.20;72.40;;;;;;4882731;28;88179;-91
2023/05/11 09:53:41;;;;;;;24.42;11.57;;;21.20;72.10;;;;;;4885962;28;89038;-91
2023/05/11 09:56:07;;;;;;;26.65;11.02;;;21.10;72.60;;;;;;4884056;28;89881;-89
2023/05/11 09:58:54;;;;;;;34.20;11.57;;;21.20;72.80;;;;;;4881214;28;87728;-88
2023/05/11 10:01:32;;;;;;;20.17;10.23;;;21.10;72.90;;;;;;4863400;28;91857;-91
2023/05/11 10:03:59;;;;;;;26.35;11.73;;;21.10;73.60;;;;;;4880464;28;88999;-89
2023/05/11 10:06:25;;;;;;;20.52;10.20;;;21.00;73.70;;;;;;4882575;28;89917;-88
2023/05/11 10:08:52;;;;;;;27.40;11.70;;;20.90;73.90;;;;;;4884148;28;87583;-89
2023/05/11 10:11:21;;;;;;;31.02;11.45;;;21.00;74.10;;;;;;4880293;28;89201;-90
2023/05/11 10:13:47;;;;;;;25.42;11.68;;;21.00;74.30;;;;;;4882757;28;90833;-90
2023/05/11 10:16:15;;;;;;;24.45;11.27;;;21.00;74.40;;;;;;4885419;28;90557;-92
2023/05/11 10:18:42;;;;;;;23.20;10.15;;;21.00;74.40;;;;;;4889926;28;87865;-91
2023/05/11 10:21:10;;;;;;;27.02;10.88;;;21.10;73.80;;;;;;4881658;28;89649;-91
2023/05/11 10:23:37;;;;;;;22.50;11.20;;;21.20;73.80;;;;;;4888782;28;90101;-94
2023/05/11 10:26:04;;;;;;;20.73;9.77;;;21.30;73.80;;;;;;4879510;28;88968;-95
2023/05/11 10:28:30;;;;;;;20.35;9.90;;;21.40;73.10;;;;;;4880963;28;87129;-93
2023/05/11 10:30:59;;;;;;;24.65;9.77;;;21.40;72.80;;;;;;4884709;28;88779;-91
2023/05/11 10:33:25;;;;;;;19.48;10.15;;;21.50;72.50;;;;;;4886591;28;93840;-91
2023/05/11 10:35:52;;;;;;;18.80;9.38;;;21.40;73.00;;;;;;4881638;28;89065;-89
2023/05/11 10:38:20;;;;;;;32.42;13.10;;;21.30;73.80;;;;;;4889837;28;88428;-90
2023/05/11 10:40:48;;;;;;;31.58;12.90;;;21.40;79.10;;;;;;4882277;28;89848;-90
2023/05/11 10:43:48;;;;;;;21.52;11.77;;;21.50;80.70;;;;;;4882812;28;94825;-91
2023/05/11 10:46:32;;;;;;;20.75;9.93;;;21.40;81.30;;;;;;4862234;28;93533;-87
2023/05/11 10:49:21;;;;;;;18.15;8.98;;;21.50;76.90;;;;;;4891388;28;87616;-88
2023/05/11 10:52:36;;;;;;;22.63;9.38;;;21.40;74.00;;;;;;4878883;28;89625;-87
2023/05/11 10:55:08;;;;;;;23.42;8.55;;;21.30;71.00;;;;;;4879445;28;88224;-87
2023/05/11 10:58:06;;;;;;;16.70;8.60;;;21.30;69.90;;;;;;4879985;28;87567;-88
2023/05/11 11:00:46;;;;;;;16.95;8.00;;;21.20;72.10;;;;;;4883302;28;87679;-87
2023/05/11 11:03:13;;;;;;;15.80;8.30;;;21.20;72.10;;;;;;4896195;28;89652;-90
2023/05/11 11:05:40;;;;;;;13.65;7.60;;;21.20;66.50;;;;;;4884762;28;88880;-90
2023/05/11 11:08:08;;;;;;;16.60;8.80;;;21.20;67.50;;;;;;4883402;28;88600;-90
2023/05/11 11:10:45;;;;;;;16.20;7.43;;;21.20;65.60;;;;;;4896835;28;87906;-89
2023/05/11 11:13:13;;;;;;;14.85;8.07;;;21.20;64.20;;;;;;4880801;28;93118;-89
2023/05/11 11:15:54;;;;;;;14.32;7.32;;;21.10;62.80;;;;;;4884146;28;88066;-89
2023/05/11 11:18:28;;;;;;;15.63;8.05;;;21.10;63.40;;;;;;4881666;28;90312;-88
2023/05/11 11:20:55;;;;;;;16.98;8.38;;;21.00;63.40;;;;;;4894960;28;87294;-87
2023/05/11 11:23:40;;;;;;;16.48;8.45;;;21.10;65.50;;;;;;4886380;28;88662;-92
2023/05/11 11:26:07;;;;;;;13.80;9.13;;;21.10;65.90;;;;;;4915924;28;87893;-93
2023/05/11 11:29:00;;;;;;;20.00;11.18;;;21.10;66.80;;;;;;4908218;28;88838;-92
2023/05/11 11:31:33;;;;;;;19.15;10.13;;;21.10;68.30;;;;;;4889237;28;88337;-91
2023/05/11 11:34:21;;;;;;;15.95;10.55;;;21.00;68.20;;;;;;4890785;28;87227;-93
2023/05/11 11:37:05;;;;;;;16.23;10.70;;;21.00;69.10;;;;;;4889362;28;91385;-92
2023/05/11 11:39:43;;;;;;;17.95;11.18;;;21.00;69.00;;;;;;4888375;28;90411;-91
2023/05/11 11:42:17;;;;;;;17.73;10.38;;;20.90;69.40;;;;;;4891309;28;87330;-94
2023/05/11 11:44:43;;;;;;;21.15;10.75;;;21.00;69.30;;;;;;4888953;28;89125;-89
2023/05/11 11:47:10;;;;;;;17.63;11.10;;;21.00;69.40;;;;;;4889849;28;89329;-90
2023/05/11 11:49:37;;;;;;;18.25;11.00;;;21.00;69.30;;;;;;4887662;28;88477;-93
2023/05/11 11:52:05;;;;;;;17.42;10.82;;;21.00;69.50;;;;;;4888836;28;87461;-94
2023/05/11 11:54:38;;;;;;;17.85;11.63;;;21.00;69.60;;;;;;4889721;28;88310;-90
2023/05/11 11:57:24;;;;;;;22.05;11.80;;;21.00;69.50;;;;;;4888680;28;91528;-90
2023/05/11 11:59:50;;;;;;;20.02;10.63;;;21.00;69.30;;;;;;4889378;28;88744;-92
2023/05/11 12:02:17;;;;;;;20.83;11.38;;;21.00;69.70;;;;;;4888371;28;87476;-95
2023/05/11 12:05:18;;;;;;;20.20;11.35;;;21.00;69.50;;;;;;4890971;28;87488;-93
2023/05/11 12:07:45;;;;;;;21.63;12.40;;;21.00;69.60;;;;;;4882711;28;94518;-93
2023/05/11 12:10:16;;;;;;;18.10;11.30;;;20.90;69.70;;;;;;4889000;28;89923;-92
2023/05/11 12:12:50;;;;;;;20.38;10.50;;;21.00;69.60;;;;;;4888490;28;88326;-92
2023/05/11 12:15:29;;;;;;;17.58;11.20;;;21.00;69.60;;;;;;4896677;28;88243;-92
2023/05/11 12:17:55;;;;;;;19.58;11.20;;;21.00;69.50;;;;;;4895833;28;90709;-92
2023/05/11 12:20:21;;;;;;;20.48;12.32;;;21.00;69.50;;;;;;4888025;28;89112;-93
2023/05/11 12:22:48;;;;;;;20.50;11.18;;;21.10;69.50;;;;;;4890169;28;89282;-92
2023/05/11 12:25:18;;;;;;;16.73;11.38;;;21.10;69.60;;;;;;4893278;28;89679;-92
2023/05/11 12:27:59;;;;;;;22.83;12.35;;;21.10;69.60;;;;;;4871431;28;89282;-94
2023/05/11 12:30:27;;;;;;;18.33;10.68;;;21.10;69.60;;;;;;4886450;28;87773;-92
2023/05/11 12:32:53;;;;;;;19.67;11.73;;;21.10;69.60;;;;;;4880514;28;87974;-92
2023/05/11 12:35:27;;;;;;;22.67;11.05;;;21.10;69.70;;;;;;4888864;28;87950;-92
2023/05/11 12:37:54;;;;;;;19.58;11.30;;;21.10;69.50;;;;;;4885848;28;89191;-91
2023/05/11 12:40:20;;;;;;;21.05;12.18;;;21.10;69.70;;;;;;4888741;28;88617;-92
2023/05/11 12:42:56;;;;;;;20.02;12.63;;;21.20;69.70;;;;;;4886689;28;87357;-93
2023/05/11 12:45:23;;;;;;;21.55;11.18;;;21.10;69.60;;;;;;4888640;28;89462;-90
2023/05/11 12:47:54;;;;;;;22.20;12.30;;;21.20;69.60;;;;;;4885559;28;91642;-92
2023/05/11 12:50:20;;;;;;;22.23;12.25;;;21.20;69.70;;;;;;4891161;28;87735;-93